BAW92I LTFJ-LGAV
Flight info
| Callsign | BAW92I |
|---|---|
| Flight time | 1h 5m |
| Altitude | 36000 |
| Route | IVGUS1W IVGUS UY226 BIG UN604 OGSIL OGSIL1Q |
| Aircraft | A321/M-SDE3FGIJ1KRWXY/SB1 |
Departure
| Time | 2026-05-04 09:27 |
|---|---|
| Airport | Istanbul Sabiha Gökçen International Airport (LTFJ) |
Arrival
| Time | 2026-05-04 10:33 |
|---|---|
| Airport | Athens Eleftherios Venizelos International Airport (LGAV) |
| Time | Latitude | Longitude | Altitude | Speed | Heading |
|---|---|---|---|---|---|
| 2026-05-04 09:01 | 40.90616 | 29.31661 | 318 ft | 0 kts | 335° |
| 2026-05-04 09:14 | 40.90580 | 29.31684 | 316 ft | 3 kts | 335° |
| 2026-05-04 09:14 | 40.90556 | 29.31699 | 318 ft | 4 kts | 315° |
| 2026-05-04 09:14 | 40.90552 | 29.31715 | 315 ft | 4 kts | 243° |
| 2026-05-04 09:14 | 40.90564 | 29.31747 | 316 ft | 4 kts | 244° |
| 2026-05-04 09:15 | 40.90572 | 29.31768 | 317 ft | 0 kts | 243° |
| 2026-05-04 09:18 | 40.90569 | 29.31761 | 317 ft | 2 kts | 242° |
| 2026-05-04 09:19 | 40.90562 | 29.31743 | 316 ft | 3 kts | 243° |
| 2026-05-04 09:19 | 40.90550 | 29.31713 | 315 ft | 5 kts | 244° |
| 2026-05-04 09:19 | 40.90523 | 29.31641 | 318 ft | 11 kts | 244° |
| 2026-05-04 09:19 | 40.90489 | 29.31548 | 318 ft | 12 kts | 244° |
| 2026-05-04 09:20 | 40.90447 | 29.31451 | 317 ft | 12 kts | 215° |
| 2026-05-04 09:20 | 40.90366 | 29.31468 | 318 ft | 13 kts | 152° |
| 2026-05-04 09:20 | 40.90288 | 29.31492 | 318 ft | 10 kts | 195° |
| 2026-05-04 09:20 | 40.90247 | 29.31425 | 318 ft | 10 kts | 250° |
| 2026-05-04 09:21 | 40.90216 | 29.31336 | 318 ft | 11 kts | 244° |
| 2026-05-04 09:21 | 40.90180 | 29.31238 | 318 ft | 13 kts | 244° |
| 2026-05-04 09:21 | 40.90127 | 29.31093 | 317 ft | 22 kts | 244° |
| 2026-05-04 09:21 | 40.90059 | 29.30905 | 317 ft | 23 kts | 244° |
| 2026-05-04 09:22 | 40.89989 | 29.30711 | 317 ft | 24 kts | 244° |
| 2026-05-04 09:22 | 40.89916 | 29.30512 | 317 ft | 24 kts | 240° |
| 2026-05-04 09:22 | 40.89838 | 29.30311 | 317 ft | 25 kts | 244° |
| 2026-05-04 09:22 | 40.89762 | 29.30102 | 316 ft | 25 kts | 243° |
| 2026-05-04 09:23 | 40.89684 | 29.29889 | 317 ft | 26 kts | 244° |
| 2026-05-04 09:23 | 40.89604 | 29.29672 | 316 ft | 23 kts | 244° |
| 2026-05-04 09:23 | 40.89553 | 29.29534 | 316 ft | 17 kts | 245° |
| 2026-05-04 09:23 | 40.89501 | 29.29391 | 316 ft | 18 kts | 244° |
| 2026-05-04 09:25 | 40.89351 | 29.29285 | 316 ft | 3 kts | 157° |
| 2026-05-04 09:25 | 40.89311 | 29.29308 | 318 ft | 7 kts | 154° |
| 2026-05-04 09:26 | 40.89280 | 29.29348 | 318 ft | 6 kts | 106° |
| 2026-05-04 09:26 | 40.89288 | 29.29379 | 318 ft | 1 kts | 64° |
| 2026-05-04 09:26 | 40.89350 | 29.29541 | 318 ft | 58 kts | 63° |
| 2026-05-04 09:26 | 40.89655 | 29.30373 | 319 ft | 139 kts | 64° |
| 2026-05-04 09:27 | 40.90147 | 29.31732 | 725 ft | 171 kts | 62° |
| 2026-05-04 09:27 | 40.90635 | 29.33173 | 1732 ft | 174 kts | 60° |
| 2026-05-04 09:27 | 40.91168 | 29.34624 | 2340 ft | 180 kts | 58° |
| 2026-05-04 09:27 | 40.91765 | 29.36194 | 2596 ft | 202 kts | 58° |
| 2026-05-04 09:28 | 40.92433 | 29.37946 | 2801 ft | 225 kts | 58° |
| 2026-05-04 09:28 | 40.93141 | 29.39843 | 3359 ft | 234 kts | 61° |
| 2026-05-04 09:28 | 40.93405 | 29.41986 | 4107 ft | 248 kts | 96° |
| 2026-05-04 09:28 | 40.92607 | 29.44042 | 4855 ft | 262 kts | 133° |
| 2026-05-04 09:29 | 40.91081 | 29.45396 | 5578 ft | 268 kts | 153° |
| 2026-05-04 09:29 | 40.89348 | 29.46339 | 6368 ft | 272 kts | 159° |
| 2026-05-04 09:29 | 40.87545 | 29.47188 | 6872 ft | 281 kts | 159° |
| 2026-05-04 09:29 | 40.85620 | 29.47999 | 6981 ft | 297 kts | 171° |
| 2026-05-04 09:30 | 40.83564 | 29.47888 | 7009 ft | 297 kts | 197° |
| 2026-05-04 09:30 | 40.81719 | 29.46705 | 7444 ft | 295 kts | 222° |
| 2026-05-04 09:30 | 40.80175 | 29.44926 | 8149 ft | 296 kts | 227° |
| 2026-05-04 09:30 | 40.78631 | 29.43082 | 8818 ft | 302 kts | 226° |
| 2026-05-04 09:31 | 40.77074 | 29.41211 | 9614 ft | 305 kts | 228° |
| 2026-05-04 09:31 | 40.75490 | 29.39301 | 10254 ft | 311 kts | 228° |
| 2026-05-04 09:31 | 40.73921 | 29.37315 | 10925 ft | 314 kts | 234° |
| 2026-05-04 09:31 | 40.72614 | 29.34965 | 11321 ft | 325 kts | 246° |
| 2026-05-04 09:32 | 40.71689 | 29.32177 | 11499 ft | 340 kts | 259° |
| 2026-05-04 09:32 | 40.71237 | 29.29066 | 11642 ft | 352 kts | 272° |
| 2026-05-04 09:34 | 40.75694 | 29.07028 | 15250 ft | 368 kts | 294° |
| 2026-05-04 09:34 | 40.76469 | 29.03801 | 15734 ft | 371 kts | 294° |
| 2026-05-04 09:34 | 40.77068 | 29.00455 | 16212 ft | 380 kts | 284° |
| 2026-05-04 09:34 | 40.77307 | 28.96948 | 16698 ft | 386 kts | 280° |
| 2026-05-04 09:35 | 40.77513 | 28.93406 | 17153 ft | 389 kts | 280° |
| 2026-05-04 09:35 | 40.77717 | 28.89834 | 17613 ft | 393 kts | 279° |
| 2026-05-04 09:35 | 40.77919 | 28.86222 | 18050 ft | 396 kts | 279° |
| 2026-05-04 09:35 | 40.78125 | 28.82580 | 18409 ft | 400 kts | 279° |
| 2026-05-04 09:37 | 40.79337 | 28.56363 | 21114 ft | 421 kts | 271° |
| 2026-05-04 09:37 | 40.79197 | 28.52495 | 21515 ft | 423 kts | 271° |
| 2026-05-04 09:38 | 40.79059 | 28.48604 | 21907 ft | 426 kts | 271° |
| 2026-05-04 09:38 | 40.78922 | 28.44692 | 22293 ft | 428 kts | 271° |
| 2026-05-04 09:38 | 40.78783 | 28.40759 | 22689 ft | 430 kts | 271° |
| 2026-05-04 09:38 | 40.78638 | 28.36810 | 23031 ft | 432 kts | 271° |
| 2026-05-04 09:39 | 40.78490 | 28.32834 | 23415 ft | 434 kts | 271° |
| 2026-05-04 09:39 | 40.78342 | 28.28848 | 23786 ft | 436 kts | 271° |
| 2026-05-04 09:39 | 40.78218 | 28.24841 | 24080 ft | 437 kts | 274° |
| 2026-05-04 09:39 | 40.78337 | 28.20832 | 24355 ft | 438 kts | 277° |
| 2026-05-04 09:40 | 40.78481 | 28.16802 | 24640 ft | 441 kts | 276° |
| 2026-05-04 09:40 | 40.78621 | 28.12748 | 24912 ft | 444 kts | 276° |
| 2026-05-04 09:40 | 40.78759 | 28.08661 | 25182 ft | 447 kts | 276° |
| 2026-05-04 09:40 | 40.78894 | 28.04555 | 25439 ft | 450 kts | 276° |
| 2026-05-04 09:41 | 40.79026 | 28.00418 | 25707 ft | 452 kts | 276° |
| 2026-05-04 09:42 | 40.75665 | 27.73196 | 27415 ft | 480 kts | 230° |
| 2026-05-04 09:43 | 40.73307 | 27.70084 | 27698 ft | 481 kts | 218° |
| 2026-05-04 09:43 | 40.70541 | 27.67621 | 27956 ft | 481 kts | 207° |
| 2026-05-04 09:43 | 40.67607 | 27.65480 | 28221 ft | 483 kts | 207° |
| 2026-05-04 09:43 | 40.64658 | 27.63349 | 28489 ft | 485 kts | 206° |
| 2026-05-04 09:44 | 40.61692 | 27.61221 | 28751 ft | 487 kts | 206° |
| 2026-05-04 09:44 | 40.58710 | 27.59087 | 29007 ft | 488 kts | 206° |
| 2026-05-04 09:44 | 40.55719 | 27.56943 | 29235 ft | 490 kts | 206° |
| 2026-05-04 09:46 | 40.34920 | 27.41342 | 31176 ft | 486 kts | 207° |
| 2026-05-04 09:46 | 40.31981 | 27.39164 | 31472 ft | 484 kts | 207° |
| 2026-05-04 09:46 | 40.29055 | 27.36994 | 31769 ft | 483 kts | 208° |
| 2026-05-04 09:47 | 40.26261 | 27.34547 | 32040 ft | 483 kts | 213° |
| 2026-05-04 09:47 | 40.23514 | 27.32011 | 32292 ft | 483 kts | 213° |
| 2026-05-04 09:49 | 40.04345 | 27.14350 | 34035 ft | 478 kts | 213° |
| 2026-05-04 09:49 | 40.01628 | 27.11863 | 34268 ft | 477 kts | 213° |
| 2026-05-04 09:49 | 39.98917 | 27.09378 | 34466 ft | 476 kts | 213° |
| 2026-05-04 09:51 | 39.82681 | 26.94545 | 35526 ft | 474 kts | 214° |
| 2026-05-04 09:51 | 39.79979 | 26.92086 | 35682 ft | 475 kts | 214° |
| 2026-05-04 09:51 | 39.77267 | 26.89623 | 35835 ft | 475 kts | 214° |
| 2026-05-04 09:51 | 39.74561 | 26.87169 | 36032 ft | 473 kts | 215° |
| 2026-05-04 09:52 | 39.71859 | 26.84722 | 36091 ft | 474 kts | 215° |
| 2026-05-04 09:52 | 39.66445 | 26.79819 | 36106 ft | 474 kts | 215° |
| 2026-05-04 09:53 | 39.61035 | 26.74926 | 36104 ft | 475 kts | 215° |
| 2026-05-04 09:53 | 39.55620 | 26.70042 | 36103 ft | 473 kts | 215° |
| 2026-05-04 09:54 | 39.50203 | 26.65167 | 36101 ft | 474 kts | 215° |
| 2026-05-04 09:54 | 39.44783 | 26.60304 | 36104 ft | 474 kts | 215° |
| 2026-05-04 09:55 | 39.39359 | 26.55440 | 36108 ft | 474 kts | 215° |
| 2026-05-04 09:55 | 39.33937 | 26.50585 | 36117 ft | 474 kts | 214° |
| 2026-05-04 09:56 | 39.28254 | 26.46279 | 36125 ft | 474 kts | 210° |
| 2026-05-04 09:56 | 39.22826 | 26.41507 | 36115 ft | 472 kts | 224° |
| 2026-05-04 09:57 | 39.18542 | 26.35137 | 36112 ft | 471 kts | 233° |
| 2026-05-04 09:57 | 39.14438 | 26.28553 | 36116 ft | 471 kts | 232° |
| 2026-05-04 09:58 | 39.10315 | 26.21984 | 36118 ft | 471 kts | 232° |
| 2026-05-04 09:58 | 39.06196 | 26.15428 | 36135 ft | 471 kts | 233° |
| 2026-05-04 10:00 | 38.89756 | 25.89296 | 36150 ft | 469 kts | 234° |
| 2026-05-04 10:04 | 38.61034 | 25.44208 | 36172 ft | 465 kts | 234° |
| 2026-05-04 10:04 | 38.56936 | 25.37812 | 36176 ft | 465 kts | 234° |
| 2026-05-04 10:05 | 38.52826 | 25.31430 | 36158 ft | 465 kts | 234° |
| 2026-05-04 10:05 | 38.48715 | 25.25056 | 36172 ft | 465 kts | 234° |
| 2026-05-04 10:06 | 38.44638 | 25.18744 | 35832 ft | 462 kts | 234° |
| 2026-05-04 10:06 | 38.42599 | 25.15589 | 35582 ft | 461 kts | 234° |
| 2026-05-04 10:06 | 38.40559 | 25.12435 | 35368 ft | 461 kts | 234° |
| 2026-05-04 10:08 | 38.28586 | 24.94028 | 33015 ft | 422 kts | 236° |
| 2026-05-04 10:08 | 38.26526 | 24.91404 | 32732 ft | 424 kts | 220° |
| 2026-05-04 10:08 | 38.23897 | 24.89633 | 32482 ft | 435 kts | 201° |
| 2026-05-04 10:08 | 38.20914 | 24.88937 | 32224 ft | 439 kts | 182° |
| 2026-05-04 10:09 | 38.17883 | 24.89407 | 31973 ft | 441 kts | 163° |
| 2026-05-04 10:09 | 38.15094 | 24.91003 | 31710 ft | 443 kts | 145° |
| 2026-05-04 10:09 | 38.12615 | 24.93356 | 31292 ft | 447 kts | 144° |
| 2026-05-04 10:09 | 38.09804 | 24.95172 | 30127 ft | 465 kts | 166° |
| 2026-05-04 10:10 | 38.06594 | 24.95652 | 28728 ft | 468 kts | 187° |
| 2026-05-04 10:10 | 38.03466 | 24.94663 | 27589 ft | 462 kts | 209° |
| 2026-05-04 10:10 | 38.00948 | 24.92331 | 27231 ft | 438 kts | 229° |
| 2026-05-04 10:10 | 37.99026 | 24.89425 | 26765 ft | 424 kts | 235° |
| 2026-05-04 10:11 | 37.97169 | 24.86568 | 26275 ft | 418 kts | 232° |
| 2026-05-04 10:11 | 37.95209 | 24.83872 | 25793 ft | 413 kts | 227° |
| 2026-05-04 10:11 | 37.93252 | 24.81324 | 25626 ft | 393 kts | 226° |
| 2026-05-04 10:11 | 37.91389 | 24.78919 | 25484 ft | 373 kts | 227° |
| 2026-05-04 10:12 | 37.89631 | 24.76602 | 25174 ft | 359 kts | 229° |
| 2026-05-04 10:12 | 37.87942 | 24.74313 | 24663 ft | 353 kts | 227° |
| 2026-05-04 10:12 | 37.86118 | 24.72309 | 24307 ft | 344 kts | 208° |
| 2026-05-04 10:12 | 37.83883 | 24.71299 | 24070 ft | 342 kts | 186° |
| 2026-05-04 10:13 | 37.81541 | 24.71434 | 23841 ft | 336 kts | 163° |
| 2026-05-04 10:13 | 37.79468 | 24.72668 | 23584 ft | 325 kts | 140° |
| 2026-05-04 10:13 | 37.78008 | 24.74764 | 23299 ft | 315 kts | 117° |
| 2026-05-04 10:13 | 37.77376 | 24.77349 | 23018 ft | 306 kts | 92° |
| 2026-05-04 10:14 | 37.77659 | 24.79976 | 22743 ft | 303 kts | 68° |
| 2026-05-04 10:14 | 37.78796 | 24.82200 | 22478 ft | 305 kts | 43° |
| 2026-05-04 10:16 | 37.86263 | 24.73685 | 20134 ft | 331 kts | 234° |
| 2026-05-04 10:16 | 37.84768 | 24.71392 | 19880 ft | 335 kts | 229° |
| 2026-05-04 10:16 | 37.83227 | 24.69170 | 19634 ft | 336 kts | 229° |
| 2026-05-04 10:16 | 37.81681 | 24.66963 | 19389 ft | 335 kts | 229° |
| 2026-05-04 10:17 | 37.80134 | 24.64763 | 19149 ft | 334 kts | 229° |
| 2026-05-04 10:17 | 37.78596 | 24.62572 | 18922 ft | 333 kts | 230° |
| 2026-05-04 10:19 | 37.67961 | 24.47337 | 15337 ft | 332 kts | 231° |
| 2026-05-04 10:19 | 37.66434 | 24.45149 | 14481 ft | 332 kts | 232° |
| 2026-05-04 10:19 | 37.64922 | 24.42991 | 13973 ft | 322 kts | 232° |
| 2026-05-04 10:19 | 37.63453 | 24.40904 | 13575 ft | 316 kts | 232° |
| 2026-05-04 10:20 | 37.62026 | 24.38873 | 13213 ft | 311 kts | 233° |
| 2026-05-04 10:20 | 37.60602 | 24.36848 | 12855 ft | 305 kts | 233° |
| 2026-05-04 10:20 | 37.59206 | 24.34861 | 12509 ft | 301 kts | 233° |
| 2026-05-04 10:20 | 37.57829 | 24.32897 | 12170 ft | 297 kts | 233° |
| 2026-05-04 10:21 | 37.56467 | 24.30958 | 11825 ft | 293 kts | 233° |
| 2026-05-04 10:21 | 37.55108 | 24.29018 | 11495 ft | 299 kts | 233° |
| 2026-05-04 10:21 | 37.53930 | 24.26864 | 11159 ft | 288 kts | 252° |
| 2026-05-04 10:21 | 37.53460 | 24.24519 | 10839 ft | 267 kts | 273° |
| 2026-05-04 10:22 | 37.54363 | 24.20364 | 10205 ft | 236 kts | 309° |
| 2026-05-04 10:22 | 37.55305 | 24.18693 | 9859 ft | 233 kts | 309° |
| 2026-05-04 10:22 | 37.56234 | 24.17034 | 9518 ft | 231 kts | 309° |
| 2026-05-04 10:23 | 37.57143 | 24.15401 | 9181 ft | 230 kts | 308° |
| 2026-05-04 10:23 | 37.58067 | 24.13736 | 8839 ft | 236 kts | 308° |
| 2026-05-04 10:25 | 37.64329 | 24.02420 | 6620 ft | 232 kts | 307° |
| 2026-05-04 10:25 | 37.65253 | 24.00755 | 6378 ft | 232 kts | 307° |
| 2026-05-04 10:25 | 37.66177 | 23.99087 | 6110 ft | 231 kts | 307° |
| 2026-05-04 10:25 | 37.67094 | 23.97427 | 5849 ft | 229 kts | 307° |
| 2026-05-04 10:26 | 37.67992 | 23.95799 | 5591 ft | 223 kts | 307° |
| 2026-05-04 10:26 | 37.68875 | 23.94200 | 5334 ft | 221 kts | 307° |
| 2026-05-04 10:26 | 37.69752 | 23.92613 | 5077 ft | 220 kts | 307° |
| 2026-05-04 10:26 | 37.70627 | 23.91028 | 4819 ft | 220 kts | 307° |
| 2026-05-04 10:27 | 37.71499 | 23.89447 | 4556 ft | 219 kts | 307° |
| 2026-05-04 10:27 | 37.72368 | 23.87866 | 4297 ft | 219 kts | 306° |
| 2026-05-04 10:27 | 37.73237 | 23.86285 | 4058 ft | 219 kts | 306° |
| 2026-05-04 10:27 | 37.74110 | 23.84702 | 3905 ft | 220 kts | 306° |
| 2026-05-04 10:28 | 37.74985 | 23.83114 | 3801 ft | 220 kts | 306° |
| 2026-05-04 10:28 | 37.75995 | 23.81709 | 3678 ft | 210 kts | 323° |
| 2026-05-04 10:28 | 37.77243 | 23.80842 | 3583 ft | 203 kts | 340° |
| 2026-05-04 10:28 | 37.78616 | 23.80519 | 3451 ft | 201 kts | 358° |
| 2026-05-04 10:29 | 37.80008 | 23.80759 | 3257 ft | 204 kts | 15° |
| 2026-05-04 10:29 | 37.81279 | 23.81573 | 3006 ft | 207 kts | 34° |
| 2026-05-04 10:29 | 37.82427 | 23.82661 | 2755 ft | 204 kts | 33° |
| 2026-05-04 10:29 | 37.83531 | 23.83711 | 2478 ft | 192 kts | 33° |
| 2026-05-04 10:30 | 37.84556 | 23.84685 | 2233 ft | 177 kts | 33° |
| 2026-05-04 10:30 | 37.85498 | 23.85577 | 2015 ft | 165 kts | 34° |
| 2026-05-04 10:30 | 37.86399 | 23.86430 | 1780 ft | 159 kts | 34° |
| 2026-05-04 10:30 | 37.87279 | 23.87263 | 1564 ft | 158 kts | 33° |
| 2026-05-04 10:31 | 37.88132 | 23.88074 | 1356 ft | 148 kts | 34° |
| 2026-05-04 10:31 | 37.88941 | 23.88841 | 1159 ft | 143 kts | 35° |
| 2026-05-04 10:32 | 37.93465 | 23.93141 | 282 ft | 105 kts | 35° |
| 2026-05-04 10:33 | 37.93853 | 23.93525 | 282 ft | 36 kts | 48° |
| 2026-05-04 10:33 | 37.93947 | 23.93735 | 284 ft | 18 kts | 70° |
| 2026-05-04 10:33 | 37.93988 | 23.93860 | 285 ft | 14 kts | 65° |
| 2026-05-04 10:33 | 37.94034 | 23.93956 | 286 ft | 12 kts | 47° |
| 2026-05-04 10:34 | 37.94100 | 23.94020 | 288 ft | 12 kts | 36° |
| 2026-05-04 10:34 | 37.94171 | 23.94086 | 287 ft | 13 kts | 38° |
| 2026-05-04 10:34 | 37.94242 | 23.94164 | 290 ft | 14 kts | 53° |
| 2026-05-04 10:34 | 37.94246 | 23.94273 | 288 ft | 12 kts | 72° |
| 2026-05-04 10:35 | 37.94305 | 23.94354 | 294 ft | 13 kts | 36° |
| 2026-05-04 10:35 | 37.94379 | 23.94425 | 291 ft | 14 kts | 38° |
| 2026-05-04 10:35 | 37.94458 | 23.94501 | 293 ft | 15 kts | 37° |
| 2026-05-04 10:35 | 37.94541 | 23.94580 | 294 ft | 15 kts | 37° |
| 2026-05-04 10:36 | 37.94618 | 23.94660 | 295 ft | 11 kts | 54° |
| 2026-05-04 10:36 | 37.94611 | 23.94749 | 293 ft | 12 kts | 121° |
| 2026-05-04 10:36 | 37.94559 | 23.94839 | 292 ft | 14 kts | 127° |
| 2026-05-04 10:36 | 37.94500 | 23.94937 | 289 ft | 14 kts | 128° |
| 2026-05-04 10:37 | 37.94443 | 23.95034 | 287 ft | 13 kts | 127° |
| 2026-05-04 10:37 | 37.94389 | 23.95123 | 285 ft | 13 kts | 128° |
| 2026-05-04 10:37 | 37.94338 | 23.95211 | 285 ft | 12 kts | 127° |
| 2026-05-04 10:37 | 37.94289 | 23.95295 | 281 ft | 12 kts | 126° |
| 2026-05-04 10:39 | 37.93990 | 23.95460 | 279 ft | 11 kts | 216° |
| 2026-05-04 10:39 | 37.93923 | 23.95398 | 279 ft | 12 kts | 217° |
| 2026-05-04 10:39 | 37.93889 | 23.95332 | 280 ft | 8 kts | 250° |
| 2026-05-04 10:40 | 37.93867 | 23.95255 | 280 ft | 10 kts | 247° |
| 2026-05-04 10:40 | 37.93821 | 23.95179 | 281 ft | 12 kts | 220° |
| 2026-05-04 10:40 | 37.93758 | 23.95120 | 281 ft | 10 kts | 216° |
| 2026-05-04 10:40 | 37.93709 | 23.95074 | 282 ft | 9 kts | 216° |
| 2026-05-04 10:41 | 37.93650 | 23.95020 | 285 ft | 12 kts | 215° |
| 2026-05-04 10:41 | 37.93583 | 23.94954 | 283 ft | 11 kts | 217° |
| 2026-05-04 10:41 | 37.93529 | 23.94903 | 284 ft | 8 kts | 216° |
| 2026-05-04 10:41 | 37.93516 | 23.94869 | 284 ft | 2 kts | 272° |
| 2026-05-04 10:42 | 37.93521 | 23.94858 | 284 ft | 1 kts | 303° |
| 2026-05-04 10:42 | 37.93527 | 23.94853 | 284 ft | 1 kts | 326° |
| 2026-05-04 10:42 | 37.93539 | 23.94842 | 286 ft | 2 kts | 316° |
| 2026-05-04 10:42 | 37.93554 | 23.94827 | 284 ft | 3 kts | 324° |
| 2026-05-04 10:43 | 37.93560 | 23.94819 | 284 ft | 1 kts | 310° |